createdAt,value
2017-10-12T00:01:53.775Z,47.40
2017-10-12T00:04:21.462Z,43.60
2017-10-12T00:06:49.124Z,42.80
2017-10-12T00:09:16.800Z,43.27
2017-10-12T00:11:44.451Z,40.30
2017-10-12T00:14:12.060Z,43.17
2017-10-12T00:16:39.732Z,43.87
2017-10-12T00:19:07.452Z,41.00
2017-10-12T00:21:35.126Z,45.07
2017-10-12T00:24:02.736Z,41.23
2017-10-12T00:26:30.463Z,38.67
2017-10-12T00:28:58.072Z,35.67
2017-10-12T00:31:25.739Z,43.67
2017-10-12T00:33:53.395Z,43.00
2017-10-12T00:36:21.052Z,41.03
2017-10-12T00:38:48.658Z,51.10
2017-10-12T00:41:16.372Z,47.67
2017-10-12T00:43:44.040Z,58.30
2017-10-12T00:46:11.650Z,47.23
2017-10-12T00:48:39.314Z,37.70
2017-10-12T00:51:06.933Z,37.60
2017-10-12T00:53:34.546Z,33.53
2017-10-12T00:56:02.208Z,36.80
2017-10-12T00:58:29.815Z,35.30
2017-10-12T01:00:57.517Z,51.17
2017-10-12T01:03:25.195Z,37.07
2017-10-12T01:05:52.963Z,39.00
2017-10-12T01:08:20.632Z,37.93
2017-10-12T01:10:48.279Z,49.07
2017-10-12T01:13:15.886Z,42.20
2017-10-12T01:15:43.555Z,52.60
2017-10-12T01:18:11.208Z,39.37
2017-10-12T01:20:38.873Z,62.87
2017-10-12T01:23:06.560Z,53.97
2017-10-12T01:25:34.236Z,49.37
2017-10-12T01:28:01.855Z,48.87
2017-10-12T01:30:29.472Z,52.77
2017-10-12T01:32:57.148Z,46.43
2017-10-12T01:35:24.835Z,51.60
2017-10-12T01:37:52.467Z,55.70
2017-10-12T01:40:20.143Z,42.83
2017-10-12T01:42:47.842Z,65.53
2017-10-12T01:45:15.460Z,55.53
2017-10-12T01:47:43.124Z,42.13
2017-10-12T01:50:10.735Z,47.23
2017-10-12T01:52:38.432Z,45.27
2017-10-12T01:55:06.080Z,30.97
2017-10-12T01:57:33.687Z,35.40
2017-10-12T02:00:01.307Z,30.17
2017-10-12T02:02:28.966Z,35.03
2017-10-12T02:04:56.580Z,31.33
2017-10-12T02:07:24.193Z,29.90
2017-10-12T02:09:51.888Z,31.43
2017-10-12T02:12:19.566Z,31.13
2017-10-12T02:14:47.235Z,38.03
2017-10-12T02:17:14.916Z,32.93
2017-10-12T02:19:42.602Z,35.47
2017-10-12T02:22:10.281Z,57.50
2017-10-12T02:24:38.015Z,40.13
2017-10-12T02:27:05.697Z,39.10
2017-10-12T02:29:33.368Z,37.93
2017-10-12T02:32:01.036Z,42.97
2017-10-12T02:34:28.665Z,61.93
2017-10-12T02:36:56.284Z,69.50
2017-10-12T02:39:24.006Z,47.93
2017-10-12T02:41:51.615Z,62.03
2017-10-12T02:44:19.284Z,58.60
2017-10-12T02:46:47.048Z,52.40
2017-10-12T02:49:14.712Z,49.53
2017-10-12T02:51:42.322Z,55.90
2017-10-12T02:54:10.040Z,33.63
2017-10-12T02:56:37.642Z,41.50
2017-10-12T02:59:05.314Z,37.90
2017-10-12T03:01:32.999Z,40.20
2017-10-12T03:04:00.624Z,42.27
2017-10-12T03:06:28.295Z,58.17
2017-10-12T03:08:55.963Z,37.10
2017-10-12T03:11:23.571Z,53.20
2017-10-12T03:13:51.253Z,49.10
2017-10-12T03:16:19.036Z,50.27
2017-10-12T03:18:46.695Z,54.70
2017-10-12T03:21:14.422Z,48.73
2017-10-12T03:23:42.082Z,41.10
2017-10-12T03:26:09.696Z,36.60
2017-10-12T03:28:37.375Z,37.23
2017-10-12T03:31:05.029Z,40.47
2017-10-12T03:33:33.632Z,34.60
2017-10-12T03:36:01.300Z,37.43
2017-10-12T03:38:29.027Z,36.40
2017-10-12T03:40:56.692Z,34.07
2017-10-12T03:43:24.355Z,30.40
2017-10-12T03:45:52.079Z,30.00
2017-10-12T03:48:19.743Z,39.70
2017-10-12T03:50:47.408Z,34.50
2017-10-12T03:53:15.121Z,40.90
2017-10-12T03:55:42.731Z,46.23
2017-10-12T03:58:10.343Z,53.70
2017-10-12T04:00:37.996Z,40.87
2017-10-12T04:03:05.648Z,55.27
2017-10-12T04:05:33.329Z,53.17
2017-10-12T04:08:01.051Z,45.27
2017-10-12T04:10:28.665Z,36.67
2017-10-12T04:12:56.272Z,55.33
2017-10-12T04:15:23.924Z,65.37
2017-10-12T04:17:51.535Z,44.87
2017-10-12T04:20:19.196Z,38.93
2017-10-12T04:22:46.920Z,43.77
2017-10-12T04:25:14.524Z,91.10
2017-10-12T04:27:42.236Z,90.27
2017-10-12T04:30:09.897Z,71.97
2017-10-12T04:32:37.503Z,62.50
2017-10-12T04:35:05.114Z,58.43
2017-10-12T04:37:32.827Z,37.47
2017-10-12T04:40:00.496Z,50.47
2017-10-12T04:42:28.160Z,56.80
2017-10-12T04:44:55.833Z,54.70
2017-10-12T04:47:23.436Z,82.90
2017-10-12T04:49:51.049Z,112.33
2017-10-12T04:52:18.764Z,250.77
2017-10-12T04:54:46.382Z,338.73
2017-10-12T04:57:14.059Z,329.53
2017-10-12T04:59:41.775Z,158.83
2017-10-12T05:02:09.384Z,78.13
2017-10-12T05:04:36.993Z,90.90
2017-10-12T05:07:04.712Z,72.27
2017-10-12T05:09:32.314Z,63.13
2017-10-12T05:11:59.981Z,53.80
2017-10-12T05:14:27.698Z,69.33
2017-10-12T05:16:55.364Z,67.53
2017-10-12T05:19:22.987Z,63.63
2017-10-12T05:21:50.715Z,77.33
2017-10-12T05:24:18.324Z,74.53
2017-10-12T05:26:45.938Z,85.20
2017-10-12T05:29:13.650Z,92.37
2017-10-12T05:31:41.340Z,83.87
2017-10-12T05:34:08.947Z,78.53
2017-10-12T05:36:36.600Z,79.83
2017-10-12T05:39:04.359Z,56.03
2017-10-12T05:41:32.019Z,62.50
2017-10-12T05:43:59.670Z,53.80
2017-10-12T05:46:27.333Z,45.80
2017-10-12T05:48:54.987Z,48.60
2017-10-12T05:51:22.652Z,39.13
2017-10-12T05:53:50.266Z,61.57
2017-10-12T05:56:17.945Z,55.33
2017-10-12T05:58:45.634Z,42.23
2017-10-12T06:01:13.316Z,43.57
2017-10-12T06:03:40.930Z,33.30
2017-10-12T06:06:08.591Z,55.00
2017-10-12T06:08:36.261Z,35.40
2017-10-12T06:11:03.875Z,44.40
2017-10-12T06:13:31.600Z,32.40
2017-10-12T06:15:59.269Z,36.87
2017-10-12T06:18:26.936Z,30.43
2017-10-12T06:20:54.619Z,25.80
2017-10-12T06:23:22.292Z,27.03
2017-10-12T06:25:49.901Z,22.97
2017-10-12T06:28:17.571Z,21.00
2017-10-12T06:30:45.233Z,25.30
2017-10-12T06:33:12.905Z,15.90
2017-10-12T06:35:40.620Z,12.30
2017-10-12T06:38:08.279Z,13.60
2017-10-12T06:40:35.904Z,9.63
2017-10-12T06:43:03.588Z,11.80
2017-10-12T06:45:31.202Z,16.97
2017-10-12T06:47:58.831Z,10.27
2017-10-12T06:50:26.588Z,17.83
2017-10-12T06:52:54.204Z,17.87
2017-10-12T06:55:21.814Z,10.63
2017-10-12T06:57:49.502Z,12.17
2017-10-12T07:00:17.119Z,8.38
2017-10-12T07:02:44.785Z,18.73
2017-10-12T07:05:12.545Z,17.37
2017-10-12T07:07:40.159Z,17.37
2017-10-12T07:10:07.830Z,9.30
2017-10-12T07:12:35.492Z,16.07
2017-10-12T07:15:03.111Z,8.83
2017-10-12T07:17:30.815Z,117.00
2017-10-12T07:19:58.479Z,21.87
2017-10-12T07:22:26.104Z,13.00
2017-10-12T07:24:53.709Z,8.73
2017-10-12T07:27:21.451Z,12.53
2017-10-12T07:29:49.126Z,14.30
2017-10-12T07:32:16.727Z,10.67
2017-10-12T07:34:44.432Z,7.73
2017-10-12T07:37:12.093Z,9.57
2017-10-12T07:39:39.768Z,30.90
2017-10-12T07:42:07.427Z,9.40
2017-10-12T07:44:35.098Z,25.10
2017-10-12T07:47:02.720Z,92.53
2017-10-12T07:49:30.380Z,47.63
2017-10-12T07:51:57.983Z,15.53
2017-10-12T07:54:25.652Z,12.57
2017-10-12T07:56:53.331Z,17.17
2017-10-12T07:59:20.931Z,13.03
2017-10-12T08:01:48.594Z,18.17
2017-10-12T08:04:16.303Z,8.77
2017-10-12T08:06:44.027Z,11.73
2017-10-12T08:09:11.700Z,9.13
2017-10-12T08:11:39.368Z,7.93
2017-10-12T08:14:06.986Z,7.33
2017-10-12T08:16:34.595Z,11.70
2017-10-12T08:19:02.377Z,6.47
2017-10-12T08:21:30.045Z,12.70
2017-10-12T08:23:57.709Z,6.80
2017-10-12T08:26:25.364Z,6.33
2017-10-12T08:28:53.012Z,10.60
2017-10-12T08:31:20.616Z,9.40
2017-10-12T08:33:48.323Z,7.13
2017-10-12T08:36:16.000Z,14.37
2017-10-12T08:38:43.607Z,8.30
2017-10-12T08:41:11.276Z,9.43
2017-10-12T08:43:38.944Z,10.37
2017-10-12T08:46:06.553Z,13.50
2017-10-12T08:48:34.280Z,6.13
2017-10-12T08:51:01.943Z,9.93
2017-10-12T08:53:29.563Z,15.57
2017-10-12T08:55:57.272Z,5.67
2017-10-12T08:58:24.948Z,11.20
2017-10-12T09:00:52.572Z,8.90
2017-10-12T09:03:20.231Z,5.40
2017-10-12T09:05:47.835Z,7.27
2017-10-12T09:08:15.504Z,74.43
2017-10-12T09:10:43.222Z,22.17
2017-10-12T09:13:10.836Z,10.63
2017-10-12T09:15:38.454Z,23.53
2017-10-12T09:18:06.115Z,8.87
2017-10-12T09:20:33.727Z,9.63
2017-10-12T09:23:01.335Z,9.73
2017-10-12T09:25:29.065Z,11.53
2017-10-12T09:27:56.675Z,6.80
2017-10-12T09:30:24.279Z,6.83
2017-10-12T09:32:52.001Z,5.30
2017-10-12T09:35:19.675Z,15.57
2017-10-12T09:37:47.356Z,9.03
2017-10-12T09:40:15.107Z,7.90
2017-10-12T09:42:42.783Z,5.50
2017-10-12T09:45:10.409Z,10.43
2017-10-12T09:47:38.079Z,7.43
2017-10-12T09:50:05.680Z,4.80
2017-10-12T09:52:33.300Z,4.53
2017-10-12T09:55:00.954Z,7.20
2017-10-12T09:57:28.589Z,7.90
2017-10-12T09:59:56.204Z,16.13
2017-10-12T10:02:23.922Z,3.53
2017-10-12T10:04:51.524Z,5.53
2017-10-12T10:07:19.159Z,10.53
2017-10-12T10:09:46.823Z,7.43
2017-10-12T10:12:14.432Z,11.27
2017-10-12T10:14:42.035Z,4.30
2017-10-12T10:17:09.707Z,8.80
2017-10-12T10:19:37.384Z,10.57
2017-10-12T10:22:05.050Z,9.37
2017-10-12T10:24:32.695Z,9.57
2017-10-12T10:27:00.304Z,9.67
2017-10-12T10:29:27.976Z,5.93
2017-10-12T10:31:55.639Z,12.53
2017-10-12T10:34:23.244Z,7.30
2017-10-12T10:36:50.856Z,11.33
2017-10-12T10:39:18.540Z,15.63
2017-10-12T10:41:46.203Z,15.13
2017-10-12T10:44:13.815Z,18.43
2017-10-12T10:46:41.482Z,9.33
2017-10-12T10:49:09.092Z,6.70
2017-10-12T10:51:36.700Z,23.50
2017-10-12T10:54:04.428Z,8.47
2017-10-12T10:56:32.095Z,17.87
2017-10-12T10:58:59.762Z,15.97
2017-10-12T11:01:27.431Z,6.73
2017-10-12T11:03:55.055Z,8.67
2017-10-12T11:06:22.660Z,12.67
2017-10-12T11:08:50.374Z,6.37
2017-10-12T11:11:17.983Z,4.97
2017-10-12T11:13:45.576Z,4.60
2017-10-12T11:16:13.243Z,5.70
2017-10-12T11:18:40.847Z,8.70
2017-10-12T11:21:08.539Z,6.40
2017-10-12T11:23:36.192Z,8.97
2017-10-12T11:26:03.856Z,3.83
2017-10-12T11:28:31.523Z,9.33
2017-10-12T11:30:59.216Z,12.60
2017-10-12T11:33:26.820Z,12.73
2017-10-12T11:35:54.486Z,5.40
2017-10-12T11:38:22.138Z,4.10
2017-10-12T11:40:49.744Z,3.67
2017-10-12T11:43:17.347Z,15.00
2017-10-12T11:45:45.056Z,3.10
2017-10-12T11:48:12.725Z,6.70
2017-10-12T11:50:40.405Z,7.10
2017-10-12T11:53:08.067Z,5.73
2017-10-12T11:55:35.684Z,11.83
2017-10-12T11:58:03.294Z,6.20
2017-10-12T12:00:30.971Z,5.30
2017-10-12T12:02:58.632Z,20.90
2017-10-12T12:05:26.242Z,5.73
2017-10-12T12:07:54.012Z,3.93
2017-10-12T12:10:21.732Z,5.50
2017-10-12T12:12:49.387Z,6.63
2017-10-12T12:15:17.075Z,40.73
2017-10-12T12:17:44.683Z,28.53
2017-10-12T12:20:12.296Z,14.00
2017-10-12T12:22:40.012Z,5.80
2017-10-12T12:25:07.623Z,5.10
2017-10-12T12:27:35.231Z,12.47
2017-10-12T12:30:02.892Z,9.87
2017-10-12T12:32:30.563Z,10.40
2017-10-12T12:34:58.160Z,8.87
2017-10-12T12:37:25.872Z,6.40
2017-10-12T12:39:53.463Z,9.93
2017-10-12T12:42:21.069Z,8.33
2017-10-12T12:44:48.741Z,3.50
2017-10-12T12:47:16.359Z,10.20
2017-10-12T12:49:44.024Z,18.57
2017-10-12T12:52:11.689Z,6.83
2017-10-12T12:54:39.355Z,11.03
2017-10-12T12:57:07.013Z,18.27
2017-10-12T12:59:34.624Z,10.27
2017-10-12T13:02:02.227Z,5.30
2017-10-12T13:04:29.876Z,11.13
2017-10-12T13:06:57.471Z,5.77
2017-10-12T13:09:25.080Z,10.13
2017-10-12T13:11:52.728Z,4.10
2017-10-12T13:14:20.332Z,5.50
2017-10-12T13:16:47.943Z,13.97
2017-10-12T13:19:15.610Z,6.37
2017-10-12T13:21:43.233Z,13.20
2017-10-12T13:24:10.839Z,7.90
2017-10-12T13:26:38.495Z,5.40
2017-10-12T13:29:06.176Z,12.10
2017-10-12T13:31:33.852Z,6.60
2017-10-12T13:34:01.522Z,13.13
2017-10-12T13:36:29.133Z,10.80
2017-10-12T13:38:56.739Z,3.43
2017-10-12T13:41:24.436Z,9.23
2017-10-12T13:43:52.053Z,21.07
2017-10-12T13:46:19.656Z,3.33
2017-10-12T13:48:47.364Z,14.77
2017-10-12T13:51:14.984Z,5.80
2017-10-12T13:53:42.648Z,12.73
2017-10-12T13:56:10.376Z,5.13
2017-10-12T13:58:37.979Z,4.07
2017-10-12T14:01:05.649Z,20.63
2017-10-12T14:03:33.411Z,4.87
2017-10-12T14:06:01.025Z,9.50
2017-10-12T14:08:28.628Z,8.20
2017-10-12T14:10:56.300Z,5.10
2017-10-12T14:13:23.992Z,3.83
2017-10-12T14:15:51.591Z,13.70
2017-10-12T14:18:19.248Z,14.33
2017-10-12T14:20:46.851Z,37.90
2017-10-12T14:23:14.525Z,13.73
2017-10-12T14:25:42.188Z,4.13
2017-10-12T14:28:09.816Z,14.63
2017-10-12T14:30:37.429Z,6.20
2017-10-12T14:33:05.111Z,14.37
2017-10-12T14:35:32.780Z,14.17
2017-10-12T14:38:00.410Z,30.70
2017-10-12T14:40:28.080Z,21.23
2017-10-12T14:42:55.687Z,15.90
2017-10-12T14:45:23.305Z,30.17
2017-10-12T14:47:51.019Z,18.93
2017-10-12T14:50:18.679Z,12.00
2017-10-12T14:52:46.344Z,28.63
2017-10-12T14:55:14.076Z,48.00
2017-10-12T14:57:41.675Z,30.10
2017-10-12T15:00:09.350Z,31.93
2017-10-12T15:02:37.124Z,40.93
2017-10-12T15:05:04.790Z,38.53
2017-10-12T15:07:32.457Z,31.77
2017-10-12T15:10:00.195Z,35.97
2017-10-12T15:12:27.865Z,24.23
2017-10-12T15:14:55.478Z,32.47
2017-10-12T15:17:23.123Z,26.77
2017-10-12T15:19:50.796Z,36.13
2017-10-12T15:22:18.455Z,18.50
2017-10-12T15:24:46.172Z,16.30
2017-10-12T15:27:13.835Z,22.70
2017-10-12T15:29:41.497Z,18.50
2017-10-12T15:32:09.167Z,17.07
2017-10-12T15:34:36.831Z,14.77
2017-10-12T15:37:04.428Z,18.80
2017-10-12T15:39:32.114Z,16.00
2017-10-12T15:41:59.783Z,29.33
2017-10-12T15:44:27.392Z,22.80
2017-10-12T15:46:55.156Z,25.60
2017-10-12T15:49:22.764Z,30.17
2017-10-12T15:51:50.387Z,60.23
2017-10-12T15:54:18.048Z,28.90
2017-10-12T15:56:45.711Z,37.20
2017-10-12T15:59:13.423Z,30.77
2017-10-12T16:01:41.148Z,22.30
2017-10-12T16:04:08.759Z,31.07
2017-10-12T16:06:36.430Z,31.40
2017-10-12T16:09:04.236Z,30.30
2017-10-12T16:11:31.846Z,36.50
2017-10-12T16:13:59.579Z,47.43
2017-10-12T16:16:27.287Z,37.67
2017-10-12T16:18:54.957Z,33.63
2017-10-12T16:21:22.561Z,37.70
2017-10-12T16:23:51.007Z,38.83
2017-10-12T16:26:18.679Z,31.13
2017-10-12T16:28:46.343Z,39.33
2017-10-12T16:31:14.011Z,23.17
2017-10-12T16:33:41.680Z,30.40
2017-10-12T16:36:09.284Z,24.70
2017-10-12T16:38:37.105Z,23.53
2017-10-12T16:41:04.766Z,23.17
2017-10-12T16:43:32.374Z,23.30
2017-10-12T16:46:00.044Z,23.00
2017-10-12T16:48:27.703Z,16.63
2017-10-12T16:50:55.366Z,20.97
2017-10-12T16:53:23.100Z,32.63
2017-10-12T16:55:50.716Z,18.97
2017-10-12T16:58:18.384Z,26.20
2017-10-12T17:00:46.052Z,24.90
2017-10-12T17:03:13.725Z,29.40
2017-10-12T17:05:41.423Z,39.73
2017-10-12T17:08:09.210Z,61.27
2017-10-12T17:13:04.581Z,83.23
2017-10-12T17:15:32.301Z,86.67
2017-10-12T17:17:59.964Z,83.23
2017-10-12T17:20:27.674Z,87.33
2017-10-12T17:22:55.408Z,66.60
2017-10-12T17:25:23.080Z,56.07
2017-10-12T17:27:50.695Z,40.43
2017-10-12T17:30:18.429Z,41.20
2017-10-12T17:32:46.109Z,50.13
2017-10-12T17:35:13.719Z,52.20
2017-10-12T17:37:41.467Z,93.50
2017-10-12T17:40:09.140Z,85.00
2017-10-12T17:42:36.832Z,64.40
2017-10-12T17:45:04.552Z,94.43
2017-10-12T17:47:32.174Z,79.80
2017-10-12T17:49:59.842Z,52.53
2017-10-12T17:52:27.565Z,47.40
2017-10-12T17:54:55.244Z,36.50
2017-10-12T17:57:22.912Z,35.33
2017-10-12T17:59:50.609Z,25.03
2017-10-12T18:02:18.228Z,30.03
2017-10-12T18:04:45.878Z,31.60
2017-10-12T18:07:13.551Z,20.50
2017-10-12T18:09:41.173Z,26.30
2017-10-12T18:12:23.814Z,21.47
2017-10-12T18:14:36.624Z,17.97
2017-10-12T18:17:04.232Z,26.30
2017-10-12T18:19:31.191Z,22.47
2017-10-12T18:21:58.917Z,26.50
2017-10-12T18:24:26.543Z,14.33
2017-10-12T18:26:54.241Z,16.00
2017-10-12T18:29:21.952Z,13.67
2017-10-12T18:31:49.560Z,9.30
2017-10-12T18:34:17.166Z,15.57
2017-10-12T18:36:44.830Z,9.93
2017-10-12T18:39:12.471Z,15.93
2017-10-12T18:41:40.074Z,6.20
2017-10-12T18:44:07.720Z,8.10
2017-10-12T18:46:35.389Z,9.73
2017-10-12T18:49:02.995Z,14.80
2017-10-12T18:51:30.649Z,11.93
2017-10-12T18:53:58.259Z,10.30
2017-10-12T18:56:25.890Z,10.67
2017-10-12T18:58:53.643Z,10.50
2017-10-12T19:01:21.267Z,9.70
2017-10-12T19:03:48.936Z,11.13
2017-10-12T19:06:16.592Z,8.03
2017-10-12T19:08:44.199Z,15.73
2017-10-12T19:11:11.799Z,8.70
2017-10-12T19:13:39.520Z,11.47
2017-10-12T19:16:07.184Z,8.50
2017-10-12T19:18:34.796Z,10.87
2017-10-12T19:21:02.519Z,9.37
2017-10-12T19:23:30.128Z,7.30
2017-10-12T19:25:57.797Z,10.10
2017-10-12T19:28:40.388Z,8.97
2017-10-12T19:30:53.223Z,8.33
2017-10-12T19:33:20.904Z,12.60
2017-10-12T19:35:48.584Z,9.93
2017-10-12T19:38:16.197Z,10.53
2017-10-12T19:43:11.588Z,13.43
2017-10-12T19:45:39.201Z,7.70
2017-10-12T19:48:06.839Z,9.00
2017-10-12T19:50:34.491Z,8.50
2017-10-12T19:53:02.117Z,6.43
2017-10-12T19:55:29.737Z,6.77
2017-10-12T19:57:57.452Z,8.83
2017-10-12T20:00:25.060Z,10.87
2017-10-12T20:02:52.673Z,8.67
2017-10-12T20:05:20.392Z,14.07
2017-10-12T20:07:48.004Z,6.13
2017-10-12T20:10:15.628Z,10.70
2017-10-12T20:12:43.344Z,6.87
2017-10-12T20:15:11.022Z,10.90
2017-10-12T20:17:38.645Z,9.77
2017-10-12T20:20:06.299Z,16.67
2017-10-12T20:22:33.907Z,21.10
2017-10-12T20:25:01.516Z,16.57
2017-10-12T20:27:29.167Z,9.40
2017-10-12T20:29:56.771Z,11.50
2017-10-12T20:32:24.443Z,12.20
2017-10-12T20:34:52.220Z,9.07
2017-10-12T20:37:19.818Z,25.80
2017-10-12T20:39:47.432Z,19.03
2017-10-12T20:42:15.171Z,23.43
2017-10-12T20:44:42.796Z,20.57
2017-10-12T20:47:10.416Z,24.70
2017-10-12T20:49:38.139Z,18.93
2017-10-12T20:54:33.413Z,14.20
2017-10-12T20:57:01.066Z,22.53
2017-10-12T20:59:28.676Z,14.00
2017-10-12T21:01:56.278Z,13.13
2017-10-12T21:04:23.943Z,16.93
2017-10-12T21:06:51.557Z,22.50
2017-10-12T21:09:19.232Z,29.20
2017-10-12T21:11:46.927Z,22.93
2017-10-12T21:14:14.531Z,28.00
2017-10-12T21:16:42.140Z,39.13
2017-10-12T21:19:09.851Z,49.93
2017-10-12T21:21:37.458Z,51.67
2017-10-12T21:24:05.063Z,46.10
2017-10-12T21:26:32.719Z,41.67
2017-10-12T21:29:00.331Z,35.93
2017-10-12T21:31:27.939Z,43.30
2017-10-12T21:33:55.599Z,40.43
2017-10-12T21:36:23.207Z,34.33
2017-10-12T21:38:50.820Z,34.50
2017-10-12T21:41:18.484Z,22.50
2017-10-12T21:43:46.099Z,20.97
2017-10-12T21:46:13.778Z,34.73
2017-10-12T21:48:41.447Z,32.50
2017-10-12T21:51:09.063Z,40.40
2017-10-12T21:53:36.670Z,30.67
2017-10-12T21:56:04.387Z,33.10
2017-10-12T21:58:32.064Z,35.70
2017-10-12T22:00:59.731Z,47.93
2017-10-12T22:03:27.479Z,30.33
2017-10-12T22:05:55.088Z,37.43
2017-10-12T22:08:22.688Z,42.03
2017-10-12T22:10:50.348Z,29.43
2017-10-12T22:13:17.975Z,33.80
2017-10-12T22:15:45.592Z,33.03
2017-10-12T22:18:13.256Z,29.07
2017-10-12T22:20:40.918Z,33.33
2017-10-12T22:23:08.588Z,33.00
2017-10-12T22:25:36.252Z,30.33
2017-10-12T22:28:03.878Z,36.40
2017-10-12T22:30:31.492Z,27.03
2017-10-12T22:32:59.151Z,35.63
2017-10-12T22:35:26.767Z,32.23
2017-10-12T22:37:54.376Z,37.17
2017-10-12T22:40:22.087Z,31.37
2017-10-12T22:42:49.723Z,31.53
2017-10-12T22:45:17.331Z,33.90
2017-10-12T22:47:45.064Z,31.80
2017-10-12T22:50:12.778Z,37.40
2017-10-12T22:52:40.388Z,39.07
2017-10-12T22:55:08.079Z,30.83
2017-10-12T22:57:35.750Z,35.20
2017-10-12T23:00:03.355Z,46.60
2017-10-12T23:02:31.013Z,40.43
2017-10-12T23:04:58.672Z,43.17
2017-10-12T23:07:26.280Z,46.37
2017-10-12T23:09:53.932Z,46.00
2017-10-12T23:12:21.536Z,44.83
2017-10-12T23:14:49.196Z,38.57
2017-10-12T23:17:16.903Z,38.73
2017-10-12T23:19:44.524Z,42.20
2017-10-12T23:22:12.244Z,38.00
2017-10-12T23:24:39.907Z,46.20
2017-10-12T23:27:07.572Z,38.73
2017-10-12T23:29:35.223Z,47.60
2017-10-12T23:32:02.883Z,41.30
2017-10-12T23:34:30.548Z,38.33
2017-10-12T23:36:58.159Z,43.67
2017-10-12T23:39:25.814Z,36.60
2017-10-12T23:41:53.475Z,40.53
2017-10-12T23:44:21.131Z,32.73
2017-10-12T23:46:48.799Z,34.23
2017-10-12T23:49:16.463Z,35.70
2017-10-12T23:51:44.077Z,39.30
2017-10-12T23:54:11.739Z,41.23
2017-10-12T23:56:39.353Z,34.33
2017-10-12T23:59:06.967Z,39.07
